sensor_id;sensor_type;location;lat;lon;timestamp;P1;durP1;ratioP1;P2;durP2;ratioP2
23490;SDS011;14683;50.038;8.078;2023-06-24T03:03:17;8.88;;;5.82;;
23490;SDS011;14683;50.038;8.078;2023-06-24T03:06:27;6.32;;;5.72;;
23490;SDS011;14683;50.038;8.078;2023-06-24T03:09:34;7.28;;;6.05;;
23490;SDS011;14683;50.038;8.078;2023-06-24T03:12:36;7.30;;;5.63;;
23490;SDS011;14683;50.038;8.078;2023-06-24T03:15:39;6.15;;;5.60;;
23490;SDS011;14683;50.038;8.078;2023-06-24T03:18:41;5.88;;;5.35;;
23490;SDS011;14683;50.038;8.078;2023-06-24T03:21:42;5.90;;;5.40;;
23490;SDS011;14683;50.038;8.078;2023-06-24T03:24:49;5.72;;;4.95;;
23490;SDS011;14683;50.038;8.078;2023-06-24T03:27:50;6.55;;;5.97;;
23490;SDS011;14683;50.038;8.078;2023-06-24T03:30:51;6.05;;;5.43;;
23490;SDS011;14683;50.038;8.078;2023-06-24T03:33:54;6.05;;;5.55;;
23490;SDS011;14683;50.038;8.078;2023-06-24T03:36:56;6.38;;;5.63;;
23490;SDS011;14683;50.038;8.078;2023-06-24T03:39:58;8.73;;;5.40;;
23490;SDS011;14683;50.038;8.078;2023-06-24T03:42:59;6.60;;;6.00;;
23490;SDS011;14683;50.038;8.078;2023-06-24T03:46:00;6.03;;;5.43;;
23490;SDS011;14683;50.038;8.078;2023-06-24T03:49:03;5.88;;;5.38;;
23490;SDS011;14683;50.038;8.078;2023-06-24T03:52:05;5.90;;;5.32;;
23490;SDS011;14683;50.038;8.078;2023-06-24T03:55:10;6.20;;;5.53;;
23490;SDS011;14683;50.038;8.078;2023-06-24T03:58:11;6.05;;;5.45;;
23490;SDS011;14683;50.038;8.078;2023-06-24T04:01:14;6.05;;;5.45;;
23490;SDS011;14683;50.038;8.078;2023-06-24T04:04:16;6.10;;;5.50;;
23490;SDS011;14683;50.038;8.078;2023-06-24T04:07:18;7.18;;;5.68;;
23490;SDS011;14683;50.038;8.078;2023-06-24T04:10:31;6.20;;;5.70;;
23490;SDS011;14683;50.038;8.078;2023-06-24T04:13:33;6.57;;;5.22;;
23490;SDS011;14683;50.038;8.078;2023-06-24T04:16:34;5.85;;;5.25;;
23490;SDS011;14683;50.038;8.078;2023-06-24T04:19:36;6.28;;;5.65;;
23490;SDS011;14683;50.038;8.078;2023-06-24T04:22:38;6.07;;;5.47;;
23490;SDS011;14683;50.038;8.078;2023-06-24T04:25:40;6.05;;;5.45;;
23490;SDS011;14683;50.038;8.078;2023-06-24T04:28:43;6.03;;;5.43;;
23490;SDS011;14683;50.038;8.078;2023-06-24T04:31:44;5.50;;;5.07;;
23490;SDS011;14683;50.038;8.078;2023-06-24T04:34:45;5.85;;;5.38;;
23490;SDS011;14683;50.038;8.078;2023-06-24T04:37:47;6.03;;;5.53;;
23490;SDS011;14683;50.038;8.078;2023-06-24T04:40:51;8.63;;;6.15;;
23490;SDS011;14683;50.038;8.078;2023-06-24T04:43:52;7.25;;;5.57;;
23490;SDS011;14683;50.038;8.078;2023-06-24T04:46:53;7.03;;;5.90;;
23490;SDS011;14683;50.038;8.078;2023-06-24T04:49:54;6.60;;;6.00;;
23490;SDS011;14683;50.038;8.078;2023-06-24T04:52:55;6.72;;;5.40;;
23490;SDS011;14683;50.038;8.078;2023-06-24T04:56:02;6.90;;;5.68;;
23490;SDS011;14683;50.038;8.078;2023-06-24T04:59:03;6.13;;;5.55;;
23490;SDS011;14683;50.038;8.078;2023-06-24T05:02:04;6.75;;;6.15;;
23490;SDS011;14683;50.038;8.078;2023-06-24T05:05:09;6.50;;;5.47;;
23490;SDS011;14683;50.038;8.078;2023-06-24T05:08:10;7.03;;;6.32;;
23490;SDS011;14683;50.038;8.078;2023-06-24T05:11:11;6.85;;;5.75;;
23490;SDS011;14683;50.038;8.078;2023-06-24T05:14:12;7.85;;;6.57;;
23490;SDS011;14683;50.038;8.078;2023-06-24T05:17:13;7.32;;;6.57;;
23490;SDS011;14683;50.038;8.078;2023-06-24T05:20:14;6.95;;;6.13;;
23490;SDS011;14683;50.038;8.078;2023-06-24T05:23:15;6.57;;;5.90;;
23490;SDS011;14683;50.038;8.078;2023-06-24T05:26:16;5.72;;;5.00;;
23490;SDS011;14683;50.038;8.078;2023-06-24T05:29:17;5.20;;;4.70;;
23490;SDS011;14683;50.038;8.078;2023-06-24T05:32:19;6.97;;;5.72;;
23490;SDS011;14683;50.038;8.078;2023-06-24T05:35:20;6.32;;;5.70;;
23490;SDS011;14683;50.038;8.078;2023-06-24T05:38:22;5.65;;;5.15;;
23490;SDS011;14683;50.038;8.078;2023-06-24T05:41:23;8.60;;;5.88;;
23490;SDS011;14683;50.038;8.078;2023-06-24T05:44:24;6.45;;;5.85;;
23490;SDS011;14683;50.038;8.078;2023-06-24T05:47:25;7.10;;;5.90;;
23490;SDS011;14683;50.038;8.078;2023-06-24T05:50:26;5.63;;;5.13;;
23490;SDS011;14683;50.038;8.078;2023-06-24T05:53:27;6.22;;;5.63;;
23490;SDS011;14683;50.038;8.078;2023-06-24T05:56:29;6.57;;;5.95;;
23490;SDS011;14683;50.038;8.078;2023-06-24T05:59:30;6.32;;;5.82;;
23490;SDS011;14683;50.038;8.078;2023-06-24T06:02:31;8.13;;;6.80;;
23490;SDS011;14683;50.038;8.078;2023-06-24T06:05:32;6.30;;;5.70;;
23490;SDS011;14683;50.038;8.078;2023-06-24T06:08:33;7.88;;;6.03;;
23490;SDS011;14683;50.038;8.078;2023-06-24T06:11:35;6.00;;;5.45;;
23490;SDS011;14683;50.038;8.078;2023-06-24T06:14:36;6.78;;;6.15;;
23490;SDS011;14683;50.038;8.078;2023-06-24T06:17:37;8.55;;;6.07;;
23490;SDS011;14683;50.038;8.078;2023-06-24T06:20:38;6.38;;;5.38;;
23490;SDS011;14683;50.038;8.078;2023-06-24T06:23:39;5.28;;;4.88;;
23490;SDS011;14683;50.038;8.078;2023-06-24T06:26:43;7.40;;;5.90;;
23490;SDS011;14683;50.038;8.078;2023-06-24T06:29:45;6.43;;;5.53;;
23490;SDS011;14683;50.038;8.078;2023-06-24T06:32:46;5.97;;;5.47;;
23490;SDS011;14683;50.038;8.078;2023-06-24T06:35:47;6.85;;;5.32;;
23490;SDS011;14683;50.038;8.078;2023-06-24T06:38:48;6.97;;;6.22;;
23490;SDS011;14683;50.038;8.078;2023-06-24T06:41:50;6.10;;;5.50;;
23490;SDS011;14683;50.038;8.078;2023-06-24T06:44:51;8.75;;;5.68;;
23490;SDS011;14683;50.038;8.078;2023-06-24T06:47:52;7.00;;;6.15;;
23490;SDS011;14683;50.038;8.078;2023-06-24T06:50:53;6.93;;;6.20;;
23490;SDS011;14683;50.038;8.078;2023-06-24T06:53:54;7.38;;;4.72;;
23490;SDS011;14683;50.038;8.078;2023-06-24T06:56:59;6.40;;;5.78;;
23490;SDS011;14683;50.038;8.078;2023-06-24T07:00:01;6.22;;;5.63;;
23490;SDS011;14683;50.038;8.078;2023-06-24T07:03:03;6.32;;;5.40;;
23490;SDS011;14683;50.038;8.078;2023-06-24T07:06:04;6.25;;;5.68;;
23490;SDS011;14683;50.038;8.078;2023-06-24T07:09:05;10.07;;;4.97;;
23490;SDS011;14683;50.038;8.078;2023-06-24T07:12:08;7.00;;;5.22;;
23490;SDS011;14683;50.038;8.078;2023-06-24T07:15:09;6.50;;;5.65;;
23490;SDS011;14683;50.038;8.078;2023-06-24T07:18:11;8.15;;;5.88;;
23490;SDS011;14683;50.038;8.078;2023-06-24T07:21:12;6.68;;;5.97;;
23490;SDS011;14683;50.038;8.078;2023-06-24T07:24:13;6.63;;;5.45;;
23490;SDS011;14683;50.038;8.078;2023-06-24T07:27:14;7.10;;;5.90;;
23490;SDS011;14683;50.038;8.078;2023-06-24T07:30:15;10.10;;;6.03;;
23490;SDS011;14683;50.038;8.078;2023-06-24T07:33:16;6.30;;;5.13;;
23490;SDS011;14683;50.038;8.078;2023-06-24T07:36:18;6.10;;;5.35;;
23490;SDS011;14683;50.038;8.078;2023-06-24T07:39:19;5.75;;;5.15;;
23490;SDS011;14683;50.038;8.078;2023-06-24T07:42:20;5.53;;;4.65;;
23490;SDS011;14683;50.038;8.078;2023-06-24T07:45:22;5.75;;;4.90;;
23490;SDS011;14683;50.038;8.078;2023-06-24T07:48:23;5.30;;;4.80;;
23490;SDS011;14683;50.038;8.078;2023-06-24T07:51:25;7.03;;;5.70;;
23490;SDS011;14683;50.038;8.078;2023-06-24T07:54:26;8.93;;;5.22;;
23490;SDS011;14683;50.038;8.078;2023-06-24T07:57:27;5.25;;;4.78;;
23490;SDS011;14683;50.038;8.078;2023-06-24T08:00:28;5.90;;;5.30;;
23490;SDS011;14683;50.038;8.078;2023-06-24T08:03:29;5.47;;;4.97;;
23490;SDS011;14683;50.038;8.078;2023-06-24T08:06:30;5.30;;;4.80;;
23490;SDS011;14683;50.038;8.078;2023-06-24T08:09:32;5.78;;;5.28;;
23490;SDS011;14683;50.038;8.078;2023-06-24T08:12:33;5.15;;;3.95;;
23490;SDS011;14683;50.038;8.078;2023-06-24T08:15:34;7.30;;;5.38;;
23490;SDS011;14683;50.038;8.078;2023-06-24T08:18:35;8.02;;;5.30;;
23490;SDS011;14683;50.038;8.078;2023-06-24T08:21:36;5.28;;;4.38;;
23490;SDS011;14683;50.038;8.078;2023-06-24T08:24:39;6.40;;;5.80;;
23490;SDS011;14683;50.038;8.078;2023-06-24T08:27:40;5.93;;;5.15;;
23490;SDS011;14683;50.038;8.078;2023-06-24T08:30:42;5.18;;;4.68;;
23490;SDS011;14683;50.038;8.078;2023-06-24T08:33:43;8.48;;;5.05;;
23490;SDS011;14683;50.038;8.078;2023-06-24T08:36:46;5.30;;;4.80;;
23490;SDS011;14683;50.038;8.078;2023-06-24T08:39:47;5.57;;;5.07;;
23490;SDS011;14683;50.038;8.078;2023-06-24T08:42:48;6.53;;;5.10;;
23490;SDS011;14683;50.038;8.078;2023-06-24T08:45:49;5.70;;;4.90;;
23490;SDS011;14683;50.038;8.078;2023-06-24T08:48:53;6.60;;;5.55;;
23490;SDS011;14683;50.038;8.078;2023-06-24T08:55:04;5.20;;;4.72;;
23490;SDS011;14683;50.038;8.078;2023-06-24T08:58:06;5.40;;;4.68;;
23490;SDS011;14683;50.038;8.078;2023-06-24T09:01:08;6.40;;;5.38;;
23490;SDS011;14683;50.038;8.078;2023-06-24T09:04:09;5.78;;;5.18;;
23490;SDS011;14683;50.038;8.078;2023-06-24T09:07:10;7.43;;;5.15;;
23490;SDS011;14683;50.038;8.078;2023-06-24T09:10:28;6.18;;;5.57;;
23490;SDS011;14683;50.038;8.078;2023-06-24T09:13:34;6.07;;;5.47;;
23490;SDS011;14683;50.038;8.078;2023-06-24T09:16:38;5.72;;;5.22;;
23490;SDS011;14683;50.038;8.078;2023-06-24T09:19:39;6.10;;;5.32;;
23490;SDS011;14683;50.038;8.078;2023-06-24T09:22:42;5.18;;;4.43;;
23490;SDS011;14683;50.038;8.078;2023-06-24T09:25:43;5.82;;;5.22;;
23490;SDS011;14683;50.038;8.078;2023-06-24T09:28:48;6.22;;;5.10;;
23490;SDS011;14683;50.038;8.078;2023-06-24T09:31:50;5.30;;;4.70;;
23490;SDS011;14683;50.038;8.078;2023-06-24T09:34:54;6.63;;;5.00;;
23490;SDS011;14683;50.038;8.078;2023-06-24T09:37:55;4.85;;;4.43;;
23490;SDS011;14683;50.038;8.078;2023-06-24T09:41:04;4.80;;;4.40;;
23490;SDS011;14683;50.038;8.078;2023-06-24T09:44:12;5.05;;;4.07;;
23490;SDS011;14683;50.038;8.078;2023-06-24T09:47:13;5.75;;;5.15;;
23490;SDS011;14683;50.038;8.078;2023-06-24T09:50:15;6.25;;;4.97;;
23490;SDS011;14683;50.038;8.078;2023-06-24T09:53:16;5.32;;;4.82;;
23490;SDS011;14683;50.038;8.078;2023-06-24T09:56:18;4.63;;;4.22;;
23490;SDS011;14683;50.038;8.078;2023-06-24T09:59:20;4.70;;;4.20;;
23490;SDS011;14683;50.038;8.078;2023-06-24T10:02:22;4.72;;;4.32;;
23490;SDS011;14683;50.038;8.078;2023-06-24T10:05:23;4.82;;;4.43;;
23490;SDS011;14683;50.038;8.078;2023-06-24T10:08:24;4.65;;;4.25;;
23490;SDS011;14683;50.038;8.078;2023-06-24T10:11:26;5.35;;;4.13;;
23490;SDS011;14683;50.038;8.078;2023-06-24T10:14:27;4.40;;;4.00;;
23490;SDS011;14683;50.038;8.078;2023-06-24T10:17:29;4.55;;;4.03;;
23490;SDS011;14683;50.038;8.078;2023-06-24T10:20:31;5.05;;;4.55;;
23490;SDS011;14683;50.038;8.078;2023-06-24T10:23:40;5.00;;;4.30;;
23490;SDS011;14683;50.038;8.078;2023-06-24T10:26:42;6.40;;;4.20;;
23490;SDS011;14683;50.038;8.078;2023-06-24T10:29:47;4.75;;;4.30;;
23490;SDS011;14683;50.038;8.078;2023-06-24T10:32:52;4.07;;;3.78;;
23490;SDS011;14683;50.038;8.078;2023-06-24T10:35:56;4.10;;;3.80;;
23490;SDS011;14683;50.038;8.078;2023-06-24T10:38:57;3.97;;;3.58;;
23490;SDS011;14683;50.038;8.078;2023-06-24T10:42:01;4.03;;;3.70;;
23490;SDS011;14683;50.038;8.078;2023-06-24T10:45:25;4.00;;;3.70;;
23490;SDS011;14683;50.038;8.078;2023-06-24T10:48:26;3.85;;;3.55;;
23490;SDS011;14683;50.038;8.078;2023-06-24T10:51:27;4.43;;;4.00;;
23490;SDS011;14683;50.038;8.078;2023-06-24T10:54:28;5.68;;;4.28;;
23490;SDS011;14683;50.038;8.078;2023-06-24T10:57:29;4.15;;;3.75;;
23490;SDS011;14683;50.038;8.078;2023-06-24T11:00:30;4.03;;;3.72;;
23490;SDS011;14683;50.038;8.078;2023-06-24T11:03:33;4.70;;;4.18;;
23490;SDS011;14683;50.038;8.078;2023-06-24T11:06:35;4.82;;;4.43;;
23490;SDS011;14683;50.038;8.078;2023-06-24T11:09:36;4.32;;;3.92;;
23490;SDS011;14683;50.038;8.078;2023-06-24T11:12:38;4.35;;;3.95;;
23490;SDS011;14683;50.038;8.078;2023-06-24T11:15:39;4.63;;;4.20;;
23490;SDS011;14683;50.038;8.078;2023-06-24T11:18:44;4.45;;;4.05;;
23490;SDS011;14683;50.038;8.078;2023-06-24T11:21:45;4.30;;;3.90;;
23490;SDS011;14683;50.038;8.078;2023-06-24T11:24:46;5.78;;;3.42;;
23490;SDS011;14683;50.038;8.078;2023-06-24T11:27:49;4.68;;;4.05;;
23490;SDS011;14683;50.038;8.078;2023-06-24T11:30:52;6.90;;;3.95;;
23490;SDS011;14683;50.038;8.078;2023-06-24T11:33:53;4.72;;;3.90;;
23490;SDS011;14683;50.038;8.078;2023-06-24T11:36:54;5.55;;;3.97;;
23490;SDS011;14683;50.038;8.078;2023-06-24T11:40:06;4.38;;;3.45;;
23490;SDS011;14683;50.038;8.078;2023-06-24T11:43:08;3.80;;;3.50;;
23490;SDS011;14683;50.038;8.078;2023-06-24T11:46:09;4.88;;;3.50;;
23490;SDS011;14683;50.038;8.078;2023-06-24T11:49:10;3.80;;;3.35;;
23490;SDS011;14683;50.038;8.078;2023-06-24T11:52:11;4.03;;;3.58;;
23490;SDS011;14683;50.038;8.078;2023-06-24T11:58:19;3.80;;;3.10;;
23490;SDS011;14683;50.038;8.078;2023-06-24T12:01:20;4.15;;;3.75;;
23490;SDS011;14683;50.038;8.078;2023-06-24T12:04:21;4.57;;;3.33;;
23490;SDS011;14683;50.038;8.078;2023-06-24T12:07:28;3.25;;;3.05;;
23490;SDS011;14683;50.038;8.078;2023-06-24T12:10:29;3.97;;;3.40;;
23490;SDS011;14683;50.038;8.078;2023-06-24T12:13:33;3.05;;;2.85;;
23490;SDS011;14683;50.038;8.078;2023-06-24T12:16:34;3.55;;;3.28;;
23490;SDS011;14683;50.038;8.078;2023-06-24T12:19:35;4.00;;;3.60;;
23490;SDS011;14683;50.038;8.078;2023-06-24T12:22:36;4.35;;;3.95;;
23490;SDS011;14683;50.038;8.078;2023-06-24T12:25:37;3.70;;;3.40;;
23490;SDS011;14683;50.038;8.078;2023-06-24T12:28:38;3.80;;;3.50;;
23490;SDS011;14683;50.038;8.078;2023-06-24T12:31:39;3.58;;;3.28;;
23490;SDS011;14683;50.038;8.078;2023-06-24T12:34:41;3.55;;;3.25;;
23490;SDS011;14683;50.038;8.078;2023-06-24T12:37:42;4.68;;;3.97;;
23490;SDS011;14683;50.038;8.078;2023-06-24T12:40:45;5.47;;;3.42;;
23490;SDS011;14683;50.038;8.078;2023-06-24T12:43:46;4.40;;;3.40;;
23490;SDS011;14683;50.038;8.078;2023-06-24T12:46:48;3.80;;;3.50;;
23490;SDS011;14683;50.038;8.078;2023-06-24T12:49:49;3.88;;;3.58;;
23490;SDS011;14683;50.038;8.078;2023-06-24T12:52:50;3.83;;;3.53;;
23490;SDS011;14683;50.038;8.078;2023-06-24T12:55:51;3.47;;;3.17;;
23490;SDS011;14683;50.038;8.078;2023-06-24T12:58:52;3.88;;;3.50;;
23490;SDS011;14683;50.038;8.078;2023-06-24T13:01:53;3.90;;;3.50;;
23490;SDS011;14683;50.038;8.078;2023-06-24T13:04:55;4.30;;;3.90;;
23490;SDS011;14683;50.038;8.078;2023-06-24T13:07:56;5.85;;;4.30;;
23490;SDS011;14683;50.038;8.078;2023-06-24T13:10:57;5.32;;;3.70;;
23490;SDS011;14683;50.038;8.078;2023-06-24T13:13:58;3.90;;;3.60;;
23490;SDS011;14683;50.038;8.078;2023-06-24T13:16:59;4.32;;;3.75;;
23490;SDS011;14683;50.038;8.078;2023-06-24T13:20:00;4.30;;;4.00;;
23490;SDS011;14683;50.038;8.078;2023-06-24T13:23:04;3.78;;;3.47;;
23490;SDS011;14683;50.038;8.078;2023-06-24T13:26:05;3.55;;;3.25;;
23490;SDS011;14683;50.038;8.078;2023-06-24T13:29:07;4.13;;;3.40;;
23490;SDS011;14683;50.038;8.078;2023-06-24T13:32:08;3.85;;;3.55;;
23490;SDS011;14683;50.038;8.078;2023-06-24T13:35:11;3.53;;;3.22;;
23490;SDS011;14683;50.038;8.078;2023-06-24T13:38:12;3.22;;;2.97;;
23490;SDS011;14683;50.038;8.078;2023-06-24T13:41:14;4.45;;;3.95;;
23490;SDS011;14683;50.038;8.078;2023-06-24T13:44:15;5.82;;;3.75;;
23490;SDS011;14683;50.038;8.078;2023-06-24T13:47:17;4.15;;;3.63;;
23490;SDS011;14683;50.038;8.078;2023-06-24T13:50:18;5.03;;;3.83;;
23490;SDS011;14683;50.038;8.078;2023-06-24T13:53:19;4.03;;;3.72;;
23490;SDS011;14683;50.038;8.078;2023-06-24T13:56:21;4.47;;;3.92;;
23490;SDS011;14683;50.038;8.078;2023-06-24T13:59:24;6.10;;;3.60;;
23490;SDS011;14683;50.038;8.078;2023-06-24T14:02:25;3.58;;;3.28;;
23490;SDS011;14683;50.038;8.078;2023-06-24T14:05:26;4.20;;;3.80;;
23490;SDS011;14683;50.038;8.078;2023-06-24T14:08:27;3.80;;;3.50;;
23490;SDS011;14683;50.038;8.078;2023-06-24T14:11:29;4.03;;;3.63;;
23490;SDS011;14683;50.038;8.078;2023-06-24T14:14:30;3.70;;;3.40;;
23490;SDS011;14683;50.038;8.078;2023-06-24T14:17:31;3.75;;;3.45;;
23490;SDS011;14683;50.038;8.078;2023-06-24T14:20:32;4.30;;;3.90;;
23490;SDS011;14683;50.038;8.078;2023-06-24T14:23:34;3.63;;;3.33;;
23490;SDS011;14683;50.038;8.078;2023-06-24T14:26:35;3.60;;;3.30;;
23490;SDS011;14683;50.038;8.078;2023-06-24T14:29:36;3.90;;;3.60;;
23490;SDS011;14683;50.038;8.078;2023-06-24T14:32:38;3.78;;;3.47;;
23490;SDS011;14683;50.038;8.078;2023-06-24T14:35:39;3.88;;;3.50;;
23490;SDS011;14683;50.038;8.078;2023-06-24T14:38:40;4.10;;;3.80;;
23490;SDS011;14683;50.038;8.078;2023-06-24T14:41:43;3.70;;;3.40;;
23490;SDS011;14683;50.038;8.078;2023-06-24T14:44:45;4.28;;;3.88;;
23490;SDS011;14683;50.038;8.078;2023-06-24T14:47:46;3.88;;;3.58;;
23490;SDS011;14683;50.038;8.078;2023-06-24T14:50:47;5.18;;;4.20;;
23490;SDS011;14683;50.038;8.078;2023-06-24T14:53:48;5.07;;;3.60;;
23490;SDS011;14683;50.038;8.078;2023-06-24T14:56:50;3.60;;;3.30;;
23490;SDS011;14683;50.038;8.078;2023-06-24T14:59:51;5.00;;;3.83;;
23490;SDS011;14683;50.038;8.078;2023-06-24T15:02:52;3.80;;;3.50;;
23490;SDS011;14683;50.038;8.078;2023-06-24T15:05:53;4.82;;;3.90;;
23490;SDS011;14683;50.038;8.078;2023-06-24T15:08:54;3.85;;;3.55;;
23490;SDS011;14683;50.038;8.078;2023-06-24T15:11:55;3.95;;;3.65;;
23490;SDS011;14683;50.038;8.078;2023-06-24T15:14:56;4.50;;;4.00;;
23490;SDS011;14683;50.038;8.078;2023-06-24T15:17:57;3.80;;;3.50;;
23490;SDS011;14683;50.038;8.078;2023-06-24T15:21:00;4.95;;;3.50;;
23490;SDS011;14683;50.038;8.078;2023-06-24T15:24:01;4.53;;;3.50;;
23490;SDS011;14683;50.038;8.078;2023-06-24T15:27:03;4.32;;;3.70;;
23490;SDS011;14683;50.038;8.078;2023-06-24T15:30:04;4.03;;;3.72;;
23490;SDS011;14683;50.038;8.078;2023-06-24T15:33:06;4.22;;;3.65;;
23490;SDS011;14683;50.038;8.078;2023-06-24T15:36:07;4.45;;;4.05;;
23490;SDS011;14683;50.038;8.078;2023-06-24T15:39:09;4.35;;;3.70;;
23490;SDS011;14683;50.038;8.078;2023-06-24T15:42:10;3.85;;;3.47;;
23490;SDS011;14683;50.038;8.078;2023-06-24T15:45:12;4.10;;;3.80;;
23490;SDS011;14683;50.038;8.078;2023-06-24T15:48:13;4.13;;;3.70;;
23490;SDS011;14683;50.038;8.078;2023-06-24T15:51:14;3.83;;;3.50;;
23490;SDS011;14683;50.038;8.078;2023-06-24T15:54:15;3.80;;;3.50;;
23490;SDS011;14683;50.038;8.078;2023-06-24T15:57:16;4.00;;;3.60;;
23490;SDS011;14683;50.038;8.078;2023-06-24T16:00:17;5.82;;;3.70;;
23490;SDS011;14683;50.038;8.078;2023-06-24T16:03:18;4.38;;;3.50;;
23490;SDS011;14683;50.038;8.078;2023-06-24T16:06:20;4.28;;;3.88;;
23490;SDS011;14683;50.038;8.078;2023-06-24T16:09:21;4.00;;;3.63;;
23490;SDS011;14683;50.038;8.078;2023-06-24T16:12:22;4.40;;;4.00;;
23490;SDS011;14683;50.038;8.078;2023-06-24T16:15:23;4.10;;;3.80;;
23490;SDS011;14683;50.038;8.078;2023-06-24T16:18:24;4.90;;;3.70;;
23490;SDS011;14683;50.038;8.078;2023-06-24T16:21:25;5.50;;;3.83;;
23490;SDS011;14683;50.038;8.078;2023-06-24T16:24:26;4.20;;;3.90;;
23490;SDS011;14683;50.038;8.078;2023-06-24T16:27:28;4.07;;;3.78;;
23490;SDS011;14683;50.038;8.078;2023-06-24T16:30:29;3.80;;;3.50;;
23490;SDS011;14683;50.038;8.078;2023-06-24T16:33:30;3.80;;;3.50;;
23490;SDS011;14683;50.038;8.078;2023-06-24T16:36:31;3.75;;;3.45;;
23490;SDS011;14683;50.038;8.078;2023-06-24T16:39:32;4.22;;;3.92;;
23490;SDS011;14683;50.038;8.078;2023-06-24T16:42:34;4.90;;;3.88;;
23490;SDS011;14683;50.038;8.078;2023-06-24T16:45:35;3.97;;;3.55;;
23490;SDS011;14683;50.038;8.078;2023-06-24T16:48:37;3.70;;;3.40;;
23490;SDS011;14683;50.038;8.078;2023-06-24T16:51:38;5.13;;;4.05;;
23490;SDS011;14683;50.038;8.078;2023-06-24T16:54:41;4.35;;;3.95;;
23490;SDS011;14683;50.038;8.078;2023-06-24T16:57:42;4.15;;;3.85;;
23490;SDS011;14683;50.038;8.078;2023-06-24T17:00:43;4.10;;;3.80;;
23490;SDS011;14683;50.038;8.078;2023-06-24T17:03:45;4.20;;;3.90;;
23490;SDS011;14683;50.038;8.078;2023-06-24T17:06:46;3.47;;;3.28;;
23490;SDS011;14683;50.038;8.078;2023-06-24T17:09:47;4.13;;;3.50;;
23490;SDS011;14683;50.038;8.078;2023-06-24T17:12:48;4.10;;;3.70;;
23490;SDS011;14683;50.038;8.078;2023-06-24T17:15:49;4.47;;;4.07;;
23490;SDS011;14683;50.038;8.078;2023-06-24T17:18:50;3.95;;;3.65;;
23490;SDS011;14683;50.038;8.078;2023-06-24T17:21:51;4.20;;;3.80;;
23490;SDS011;14683;50.038;8.078;2023-06-24T17:24:52;4.32;;;3.92;;
23490;SDS011;14683;50.038;8.078;2023-06-24T17:27:53;4.38;;;3.97;;
23490;SDS011;14683;50.038;8.078;2023-06-24T17:30:55;4.28;;;3.88;;
23490;SDS011;14683;50.038;8.078;2023-06-24T17:33:56;4.25;;;3.80;;
23490;SDS011;14683;50.038;8.078;2023-06-24T17:36:57;4.38;;;3.85;;
23490;SDS011;14683;50.038;8.078;2023-06-24T17:39:58;4.32;;;3.92;;
23490;SDS011;14683;50.038;8.078;2023-06-24T17:42:59;4.05;;;3.75;;
23490;SDS011;14683;50.038;8.078;2023-06-24T17:46:00;4.05;;;3.72;;
23490;SDS011;14683;50.038;8.078;2023-06-24T17:49:01;4.00;;;3.67;;
23490;SDS011;14683;50.038;8.078;2023-06-24T17:52:02;5.28;;;3.75;;
23490;SDS011;14683;50.038;8.078;2023-06-24T17:55:04;4.85;;;4.43;;
23490;SDS011;14683;50.038;8.078;2023-06-24T17:58:06;4.75;;;4.25;;
23490;SDS011;14683;50.038;8.078;2023-06-24T18:01:08;4.30;;;3.90;;
23490;SDS011;14683;50.038;8.078;2023-06-24T18:04:15;4.00;;;3.70;;
23490;SDS011;14683;50.038;8.078;2023-06-24T18:07:16;4.55;;;4.15;;
23490;SDS011;14683;50.038;8.078;2023-06-24T18:10:18;5.28;;;4.32;;
23490;SDS011;14683;50.038;8.078;2023-06-24T18:13:20;4.75;;;4.35;;
23490;SDS011;14683;50.038;8.078;2023-06-24T18:16:21;4.00;;;3.70;;
23490;SDS011;14683;50.038;8.078;2023-06-24T18:19:23;4.20;;;3.90;;
23490;SDS011;14683;50.038;8.078;2023-06-24T18:22:24;4.97;;;4.55;;
23490;SDS011;14683;50.038;8.078;2023-06-24T18:25:25;5.18;;;4.25;;
23490;SDS011;14683;50.038;8.078;2023-06-24T18:28:26;4.15;;;3.85;;
23490;SDS011;14683;50.038;8.078;2023-06-24T18:31:27;4.90;;;4.13;;
23490;SDS011;14683;50.038;8.078;2023-06-24T18:34:28;4.20;;;3.90;;
23490;SDS011;14683;50.038;8.078;2023-06-24T18:37:29;4.38;;;3.97;;
23490;SDS011;14683;50.038;8.078;2023-06-24T18:40:31;4.15;;;3.85;;
23490;SDS011;14683;50.038;8.078;2023-06-24T18:43:32;4.57;;;4.18;;
23490;SDS011;14683;50.038;8.078;2023-06-24T18:46:33;4.43;;;4.03;;
23490;SDS011;14683;50.038;8.078;2023-06-24T18:49:35;4.35;;;3.95;;
23490;SDS011;14683;50.038;8.078;2023-06-24T18:52:36;4.30;;;3.97;;
23490;SDS011;14683;50.038;8.078;2023-06-24T18:55:37;4.18;;;3.88;;
23490;SDS011;14683;50.038;8.078;2023-06-24T18:58:38;5.00;;;3.92;;
23490;SDS011;14683;50.038;8.078;2023-06-24T19:01:39;4.13;;;3.70;;
23490;SDS011;14683;50.038;8.078;2023-06-24T19:04:42;5.90;;;4.25;;
23490;SDS011;14683;50.038;8.078;2023-06-24T19:07:43;4.70;;;4.20;;
23490;SDS011;14683;50.038;8.078;2023-06-24T19:10:45;4.63;;;4.22;;
23490;SDS011;14683;50.038;8.078;2023-06-24T19:13:46;5.63;;;4.38;;
23490;SDS011;14683;50.038;8.078;2023-06-24T19:16:49;5.15;;;4.38;;
23490;SDS011;14683;50.038;8.078;2023-06-24T19:19:51;4.30;;;3.90;;
23490;SDS011;14683;50.038;8.078;2023-06-24T19:22:52;4.85;;;4.45;;
23490;SDS011;14683;50.038;8.078;2023-06-24T19:25:53;4.65;;;4.25;;
23490;SDS011;14683;50.038;8.078;2023-06-24T19:28:54;5.80;;;4.68;;
23490;SDS011;14683;50.038;8.078;2023-06-24T19:31:55;4.63;;;4.22;;
23490;SDS011;14683;50.038;8.078;2023-06-24T19:34:56;4.80;;;4.05;;
23490;SDS011;14683;50.038;8.078;2023-06-24T19:38:00;5.07;;;4.60;;
23490;SDS011;14683;50.038;8.078;2023-06-24T19:41:01;5.43;;;4.93;;
23490;SDS011;14683;50.038;8.078;2023-06-24T19:44:06;4.57;;;4.18;;
23490;SDS011;14683;50.038;8.078;2023-06-24T19:47:08;4.80;;;4.35;;
23490;SDS011;14683;50.038;8.078;2023-06-24T19:50:09;4.80;;;4.40;;
23490;SDS011;14683;50.038;8.078;2023-06-24T19:53:11;6.03;;;4.55;;
23490;SDS011;14683;50.038;8.078;2023-06-24T19:56:12;5.25;;;4.75;;
23490;SDS011;14683;50.038;8.078;2023-06-24T19:59:13;5.45;;;4.95;;
23490;SDS011;14683;50.038;8.078;2023-06-24T20:02:14;5.43;;;4.93;;
23490;SDS011;14683;50.038;8.078;2023-06-24T20:05:15;5.47;;;4.97;;
23490;SDS011;14683;50.038;8.078;2023-06-24T20:08:16;5.40;;;4.90;;
23490;SDS011;14683;50.038;8.078;2023-06-24T20:11:17;5.40;;;4.93;;
23490;SDS011;14683;50.038;8.078;2023-06-24T20:14:18;4.88;;;4.47;;
23490;SDS011;14683;50.038;8.078;2023-06-24T20:17:19;4.88;;;4.47;;
23490;SDS011;14683;50.038;8.078;2023-06-24T20:20:20;4.80;;;4.40;;
23490;SDS011;14683;50.038;8.078;2023-06-24T20:23:22;4.95;;;4.55;;
23490;SDS011;14683;50.038;8.078;2023-06-24T20:26:23;4.72;;;4.32;;
23490;SDS011;14683;50.038;8.078;2023-06-24T20:29:24;6.00;;;4.93;;
23490;SDS011;14683;50.038;8.078;2023-06-24T20:32:25;5.10;;;4.60;;
23490;SDS011;14683;50.038;8.078;2023-06-24T20:35:26;5.63;;;5.10;;
23490;SDS011;14683;50.038;8.078;2023-06-24T20:38:27;5.22;;;4.82;;
23490;SDS011;14683;50.038;8.078;2023-06-24T20:41:28;5.20;;;4.78;;
23490;SDS011;14683;50.038;8.078;2023-06-24T20:44:32;5.63;;;4.60;;
23490;SDS011;14683;50.038;8.078;2023-06-24T20:47:33;5.95;;;4.95;;
23490;SDS011;14683;50.038;8.078;2023-06-24T20:50:34;6.55;;;5.38;;
23490;SDS011;14683;50.038;8.078;2023-06-24T20:53:35;5.50;;;5.05;;
23490;SDS011;14683;50.038;8.078;2023-06-24T20:56:36;6.55;;;5.10;;
23490;SDS011;14683;50.038;8.078;2023-06-24T20:59:37;5.38;;;4.88;;
